Time;durP1;ratioP1;P1;durP2;ratioP2;P2;SDS_P1;SDS_P2;PMS_P1;PMS_P2;Temp;Humidity;BMP_temperature;BMP_pressure;BME280_temperature;BME280_humidity;BME280_pressure;Samples;Min_cycle;Max_cycle;Signal;HPM_P1;HPM_P2
2023/09/02 00:00:10;;;;;;;48.67;30.05;;;;;;;;;;5012658;27;92408;-60
2023/09/02 00:02:37;;;;;;;39.97;27.40;;;;;;;;;;5012538;27;92761;-60
2023/09/02 00:05:03;;;;;;;43.83;28.38;;;;;;;;;;5014885;27;93418;-61
2023/09/02 00:07:30;;;;;;;44.83;29.02;;;;;;;;;;5018260;27;92465;-61
2023/09/02 00:09:56;;;;;;;46.92;30.88;;;;;;;;;;5014800;27;93132;-60
2023/09/02 00:12:23;;;;;;;45.22;27.73;;;;;;;;;;5010468;27;96497;-61
2023/09/02 00:14:49;;;;;;;41.72;27.77;;;;;;;;;;5011916;27;92787;-61
2023/09/02 00:17:15;;;;;;;40.33;26.20;;;;;;;;;;5019453;27;93142;-60
2023/09/02 00:19:43;;;;;;;34.50;23.75;;;;;;;;;;5012938;27;94359;-61
2023/09/02 00:22:09;;;;;;;34.58;24.02;;;;;;;;;;5018588;27;92742;-60
2023/09/02 00:24:36;;;;;;;29.33;22.15;;;;;;;;;;5014037;27;94258;-60
2023/09/02 00:27:02;;;;;;;34.25;24.02;;;;;;;;;;5015249;27;93463;-61
2023/09/02 00:29:28;;;;;;;33.63;23.67;;;;;;;;;;5012321;27;93163;-62
2023/09/02 00:31:55;;;;;;;34.67;23.70;;;;;;;;;;5010847;27;93383;-62
2023/09/02 00:34:21;;;;;;;33.17;23.85;;;;;;;;;;5017932;27;92518;-61
2023/09/02 00:36:47;;;;;;;36.58;22.02;;;;;;;;;;5014068;27;94812;-62
2023/09/02 00:39:14;;;;;;;31.02;22.52;;;;;;;;;;5015702;27;94827;-61
2023/09/02 00:41:46;;;;;;;33.47;22.00;;;;;;;;;;5014759;27;92539;-62
2023/09/02 00:44:13;;;;;;;33.95;22.90;;;;;;;;;;5015510;27;94723;-61
2023/09/02 00:46:39;;;;;;;36.65;24.33;;;;;;;;;;5016985;27;93072;-62
2023/09/02 00:49:06;;;;;;;33.72;23.23;;;;;;;;;;5019680;27;92464;-61
2023/09/02 00:51:33;;;;;;;38.65;24.35;;;;;;;;;;5017148;27;93503;-61
2023/09/02 00:53:59;;;;;;;31.77;22.38;;;;;;;;;;5015497;27;91806;-61
2023/09/02 00:56:27;;;;;;;33.33;22.98;;;;;;;;;;5014562;27;92628;-61
2023/09/02 00:58:56;;;;;;;37.33;23.85;;;;;;;;;;5017007;27;93551;-62
2023/09/02 01:01:22;;;;;;;34.80;22.52;;;;;;;;;;5013599;27;94914;-61
2023/09/02 01:03:49;;;;;;;34.70;23.67;;;;;;;;;;5015266;27;95643;-61
2023/09/02 01:06:15;;;;;;;33.63;23.85;;;;;;;;;;5014806;27;93019;-62
2023/09/02 01:08:42;;;;;;;32.95;21.50;;;;;;;;;;5020429;27;93217;-62
2023/09/02 01:11:08;;;;;;;32.90;23.10;;;;;;;;;;5016667;27;93386;-61
2023/09/02 01:13:35;;;;;;;37.28;22.17;;;;;;;;;;5014845;27;92470;-62
2023/09/02 01:16:02;;;;;;;35.22;21.20;;;;;;;;;;5019888;27;94317;-62
2023/09/02 01:18:29;;;;;;;32.55;21.02;;;;;;;;;;5018096;27;92556;-61
2023/09/02 01:21:03;;;;;;;30.20;20.60;;;;;;;;;;5014677;27;93098;-62
2023/09/02 01:23:44;;;;;;;28.13;19.27;;;;;;;;;;5014553;27;93111;-62
2023/09/02 01:26:18;;;;;;;32.83;21.65;;;;;;;;;;5017466;27;95871;-62
2023/09/02 01:28:46;;;;;;;28.67;21.15;;;;;;;;;;5015268;27;92547;-61
2023/09/02 01:31:14;;;;;;;31.70;21.58;;;;;;;;;;5017225;27;93152;-62
2023/09/02 01:33:42;;;;;;;55.45;31.92;;;;;;;;;;5014494;27;92594;-61
2023/09/02 01:36:12;;;;;;;58.55;32.05;;;;;;;;;;5013640;27;92441;-61
2023/09/02 01:38:39;;;;;;;53.17;30.08;;;;;;;;;;5015093;27;93377;-62
2023/09/02 01:41:06;;;;;;;55.05;30.25;;;;;;;;;;5018554;27;92514;-61
2023/09/02 01:43:34;;;;;;;51.15;29.50;;;;;;;;;;5014210;27;93199;-60
2023/09/02 01:46:00;;;;;;;53.15;30.05;;;;;;;;;;5019497;27;94420;-61
2023/09/02 01:48:27;;;;;;;53.35;29.15;;;;;;;;;;5017343;27;92759;-61
2023/09/02 01:50:54;;;;;;;43.45;27.15;;;;;;;;;;5012299;27;94824;-61
2023/09/02 01:53:21;;;;;;;48.55;28.92;;;;;;;;;;5017502;27;93823;-61
2023/09/02 01:55:48;;;;;;;43.58;25.90;;;;;;;;;;5018174;27;93195;-61
2023/09/02 01:58:16;;;;;;;48.00;25.27;;;;;;;;;;5016441;27;93655;-62
2023/09/02 02:00:42;;;;;;;47.03;25.92;;;;;;;;;;5014125;27;92624;-61
2023/09/02 02:03:14;;;;;;;37.90;24.42;;;;;;;;;;5018055;27;93232;-61
2023/09/02 02:05:43;;;;;;;36.08;23.30;;;;;;;;;;5014090;27;92894;-61
2023/09/02 02:08:17;;;;;;;38.70;23.67;;;;;;;;;;5014487;27;91734;-61
2023/09/02 02:10:45;;;;;;;33.88;22.48;;;;;;;;;;5013461;27;92568;-61
2023/09/02 02:13:12;;;;;;;44.38;22.80;;;;;;;;;;5014074;27;93636;-62
2023/09/02 02:15:39;;;;;;;37.67;21.42;;;;;;;;;;5015129;27;94894;-62
2023/09/02 02:18:05;;;;;;;38.85;21.35;;;;;;;;;;5025500;27;93330;-61
2023/09/02 02:20:38;;;;;;;33.58;20.35;;;;;;;;;;5014308;27;92608;-62
2023/09/02 02:23:05;;;;;;;51.97;21.80;;;;;;;;;;5013343;27;93191;-61
2023/09/02 02:25:31;;;;;;;40.22;19.75;;;;;;;;;;5013841;27;93482;-62
2023/09/02 02:27:59;;;;;;;35.35;18.05;;;;;;;;;;5017739;27;92449;-61
2023/09/02 02:30:26;;;;;;;43.63;15.68;;;;;;;;;;5013373;27;93064;-61
2023/09/02 02:32:52;;;;;;;28.55;14.35;;;;;;;;;;5014178;27;93135;-61
2023/09/02 02:35:20;;;;;;;25.60;14.70;;;;;;;;;;5013803;27;92553;-61
2023/09/02 02:37:47;;;;;;;21.73;14.75;;;;;;;;;;5016640;27;93083;-61
2023/09/02 02:40:13;;;;;;;20.80;14.68;;;;;;;;;;5011996;27;94843;-61
2023/09/02 02:42:39;;;;;;;26.20;14.82;;;;;;;;;;5017382;27;95566;-61
2023/09/02 02:45:06;;;;;;;21.30;16.00;;;;;;;;;;5012415;27;93380;-61
2023/09/02 02:47:32;;;;;;;43.70;18.45;;;;;;;;;;5018101;27;92552;-61
2023/09/02 02:49:59;;;;;;;33.67;18.27;;;;;;;;;;5013340;27;93181;-61
2023/09/02 02:52:25;;;;;;;37.10;19.05;;;;;;;;;;5013446;27;94718;-61
2023/09/02 02:54:51;;;;;;;50.85;18.27;;;;;;;;;;5012917;27;92605;-61
2023/09/02 02:57:18;;;;;;;35.95;17.60;;;;;;;;;;5016825;27;94243;-62
2023/09/02 02:59:44;;;;;;;30.90;17.77;;;;;;;;;;5017835;27;92483;-61
2023/09/02 03:02:11;;;;;;;28.90;18.13;;;;;;;;;;5014357;27;93124;-61
2023/09/02 03:04:37;;;;;;;31.17;19.25;;;;;;;;;;5010706;27;95827;-61
2023/09/02 03:07:03;;;;;;;33.58;19.42;;;;;;;;;;5017514;27;92574;-62
2023/09/02 03:09:30;;;;;;;30.40;19.17;;;;;;;;;;5013268;27;94196;-61
2023/09/02 03:11:57;;;;;;;28.98;18.98;;;;;;;;;;5016596;27;93481;-61
2023/09/02 03:14:25;;;;;;;44.78;19.10;;;;;;;;;;5013525;27;92414;-61
2023/09/02 03:16:51;;;;;;;32.60;20.40;;;;;;;;;;5020796;27;92516;-61
2023/09/02 03:19:18;;;;;;;34.75;19.42;;;;;;;;;;5015139;27;93523;-61
2023/09/02 03:21:44;;;;;;;31.48;20.90;;;;;;;;;;5013265;27;93233;-62
2023/09/02 03:24:10;;;;;;;51.13;22.25;;;;;;;;;;5012544;27;93482;-61
2023/09/02 03:26:37;;;;;;;75.22;21.80;;;;;;;;;;5012490;27;92651;-61
2023/09/02 03:29:03;;;;;;;31.52;19.05;;;;;;;;;;5014735;27;95086;-61
2023/09/02 03:31:30;;;;;;;36.65;18.40;;;;;;;;;;5012875;27;93282;-62
2023/09/02 03:33:56;;;;;;;84.03;20.70;;;;;;;;;;5015559;27;92482;-61
2023/09/02 03:36:22;;;;;;;30.85;17.75;;;;;;;;;;5016641;27;93209;-61
2023/09/02 03:38:49;;;;;;;35.85;21.25;;;;;;;;;;5011971;27;94475;-61
2023/09/02 03:41:19;;;;;;;33.95;19.42;;;;;;;;;;5015737;27;92573;-61
2023/09/02 03:43:45;;;;;;;44.40;20.33;;;;;;;;;;5012106;27;92370;-61
2023/09/02 03:46:13;;;;;;;43.00;22.60;;;;;;;;;;5019704;27;92769;-61
2023/09/02 03:48:39;;;;;;;55.72;22.15;;;;;;;;;;5018300;27;92688;-61
2023/09/02 03:51:11;;;;;;;35.30;20.50;;;;;;;;;;5012738;27;94623;-61
2023/09/02 03:53:38;;;;;;;41.42;22.92;;;;;;;;;;5014630;27;94986;-61
2023/09/02 03:56:05;;;;;;;42.83;23.10;;;;;;;;;;5012559;27;96180;-61
2023/09/02 03:58:31;;;;;;;41.30;23.10;;;;;;;;;;5015289;27;93524;-62
2023/09/02 04:00:58;;;;;;;56.88;26.20;;;;;;;;;;5012569;27;92664;-60
2023/09/02 04:03:25;;;;;;;64.32;25.27;;;;;;;;;;5015098;27;93198;-61
2023/09/02 04:05:55;;;;;;;66.82;26.30;;;;;;;;;;5016475;27;92570;-60
2023/09/02 04:08:22;;;;;;;53.83;26.57;;;;;;;;;;5011814;27;93132;-61
2023/09/02 04:10:55;;;;;;;56.42;27.02;;;;;;;;;;5020606;27;92803;-61
2023/09/02 04:13:24;;;;;;;65.07;28.35;;;;;;;;;;5012710;27;92639;-60
2023/09/02 04:15:53;;;;;;;72.40;27.63;;;;;;;;;;5011305;27;93190;-61
2023/09/02 04:18:20;;;;;;;50.97;24.20;;;;;;;;;;5010741;27;96799;-61
2023/09/02 04:20:46;;;;;;;68.93;25.73;;;;;;;;;;5012667;27;92725;-61
2023/09/02 04:23:13;;;;;;;142.15;26.33;;;;;;;;;;5011950;27;94246;-60
2023/09/02 04:25:50;;;;;;;81.28;25.23;;;;;;;;;;5019231;27;92536;-61
2023/09/02 04:28:17;;;;;;;106.10;27.50;;;;;;;;;;5012494;27;93187;-60
2023/09/02 04:30:44;;;;;;;55.53;24.65;;;;;;;;;;5015861;27;93292;-60
2023/09/02 04:33:11;;;;;;;76.22;24.70;;;;;;;;;;5011750;27;92536;-61
2023/09/02 04:35:38;;;;;;;91.57;27.00;;;;;;;;;;5020869;27;93354;-61
2023/09/02 04:38:05;;;;;;;77.25;24.77;;;;;;;;;;5020041;27;93345;-60
2023/09/02 04:40:35;;;;;;;90.97;25.88;;;;;;;;;;5011918;27;92698;-60
2023/09/02 04:43:01;;;;;;;150.13;28.57;;;;;;;;;;5010537;27;94931;-60
2023/09/02 04:45:30;;;;;;;157.52;27.60;;;;;;;;;;5012458;27;94465;-60
2023/09/02 04:47:56;;;;;;;154.50;29.10;;;;;;;;;;5015374;27;92542;-60
2023/09/02 04:50:23;;;;;;;103.97;25.70;;;;;;;;;;5012328;27;94693;-60
2023/09/02 04:52:49;;;;;;;101.93;27.30;;;;;;;;;;5016051;27;92363;-60
2023/09/02 04:55:16;;;;;;;143.57;28.70;;;;;;;;;;5011597;27;93237;-60
2023/09/02 04:57:42;;;;;;;164.15;29.30;;;;;;;;;;5012144;27;93492;-60
2023/09/02 05:00:09;;;;;;;216.40;30.63;;;;;;;;;;5014828;27;91766;-60
2023/09/02 05:02:35;;;;;;;89.60;26.40;;;;;;;;;;5010730;27;93558;-60
2023/09/02 05:05:02;;;;;;;190.93;28.73;;;;;;;;;;5011172;27;93774;-61
2023/09/02 05:07:28;;;;;;;77.70;29.55;;;;;;;;;;5013627;27;94832;-60
2023/09/02 05:09:55;;;;;;;80.47;27.45;;;;;;;;;;5011427;27;94522;-60
2023/09/02 05:12:21;;;;;;;86.18;27.58;;;;;;;;;;5011576;27;92459;-60
2023/09/02 05:14:47;;;;;;;92.10;27.35;;;;;;;;;;5010353;27;93201;-60
2023/09/02 05:17:14;;;;;;;147.50;28.88;;;;;;;;;;5012808;27;94443;-60
2023/09/02 05:19:40;;;;;;;57.80;26.33;;;;;;;;;;5011689;27;92595;-60
2023/09/02 05:22:07;;;;;;;50.22;26.95;;;;;;;;;;5014149;27;94316;-60
2023/09/02 05:24:33;;;;;;;87.43;26.58;;;;;;;;;;5014505;27;92495;-60
2023/09/02 05:26:59;;;;;;;52.97;25.58;;;;;;;;;;5014887;27;92453;-60
2023/09/02 05:29:25;;;;;;;225.77;31.08;;;;;;;;;;5018023;27;94268;-60
2023/09/02 05:31:52;;;;;;;92.28;26.85;;;;;;;;;;5012399;27;94899;-60
2023/09/02 05:34:18;;;;;;;56.63;26.00;;;;;;;;;;5013632;27;94259;-60
2023/09/02 05:36:45;;;;;;;238.45;30.70;;;;;;;;;;5014472;27;93479;-61
2023/09/02 05:39:11;;;;;;;188.02;29.20;;;;;;;;;;5015865;27;92658;-60
2023/09/02 05:41:38;;;;;;;85.28;25.02;;;;;;;;;;5020792;27;93342;-60
2023/09/02 05:44:04;;;;;;;221.18;27.38;;;;;;;;;;5016330;27;93435;-59
2023/09/02 05:46:31;;;;;;;40.75;22.23;;;;;;;;;;5015181;27;92631;-60
2023/09/02 05:48:57;;;;;;;112.70;23.60;;;;;;;;;;5014376;27;93649;-60
2023/09/02 05:51:25;;;;;;;66.53;20.98;;;;;;;;;;5016687;27;93437;-60
2023/09/02 05:53:51;;;;;;;205.25;22.40;;;;;;;;;;5013807;27;93150;-59
2023/09/02 05:56:18;;;;;;;64.72;20.63;;;;;;;;;;5011923;27;95800;-60
2023/09/02 05:58:44;;;;;;;32.15;18.77;;;;;;;;;;5017862;27;92603;-60
2023/09/02 06:01:10;;;;;;;81.13;21.38;;;;;;;;;;5014519;27;93296;-61
2023/09/02 06:03:37;;;;;;;75.78;22.90;;;;;;;;;;5014015;27;94462;-60
2023/09/02 06:06:12;;;;;;;40.03;22.45;;;;;;;;;;5017835;27;92440;-60
2023/09/02 06:08:39;;;;;;;39.10;22.15;;;;;;;;;;5013233;27;93496;-60
2023/09/02 06:11:06;;;;;;;44.08;22.10;;;;;;;;;;5014520;27;94409;-59
2023/09/02 06:13:33;;;;;;;40.15;22.95;;;;;;;;;;5025059;27;92044;-60
2023/09/02 06:16:00;;;;;;;32.75;21.90;;;;;;;;;;5018670;27;94753;-60
2023/09/02 06:18:26;;;;;;;36.50;23.20;;;;;;;;;;5018567;27;92545;-60
2023/09/02 06:20:53;;;;;;;39.50;23.00;;;;;;;;;;5012294;27;95029;-61
2023/09/02 06:23:19;;;;;;;42.60;23.52;;;;;;;;;;5013295;27;93402;-61
2023/09/02 06:25:56;;;;;;;64.43;23.95;;;;;;;;;;5013935;27;92403;-60
2023/09/02 06:28:23;;;;;;;60.00;23.52;;;;;;;;;;5013562;27;93007;-61
2023/09/02 06:30:49;;;;;;;91.00;24.77;;;;;;;;;;5013650;27;94797;-61
2023/09/02 06:33:16;;;;;;;47.22;22.88;;;;;;;;;;5016239;27;92601;-60
2023/09/02 06:35:43;;;;;;;73.25;22.98;;;;;;;;;;5016326;27;93243;-61
2023/09/02 06:38:09;;;;;;;87.28;23.83;;;;;;;;;;5013428;27;91998;-61
2023/09/02 06:40:36;;;;;;;104.93;25.90;;;;;;;;;;5012645;27;92633;-61
2023/09/02 06:43:02;;;;;;;75.60;24.48;;;;;;;;;;5012982;27;93360;-61
2023/09/02 06:45:29;;;;;;;100.50;25.48;;;;;;;;;;5011542;27;94976;-60
2023/09/02 06:47:55;;;;;;;153.90;25.23;;;;;;;;;;5028380;27;95631;-60
2023/09/02 06:50:21;;;;;;;56.15;23.88;;;;;;;;;;5012650;27;93253;-60
2023/09/02 06:52:50;;;;;;;192.05;27.05;;;;;;;;;;5017476;27;92767;-58
2023/09/02 06:55:16;;;;;;;55.55;22.92;;;;;;;;;;5012381;27;93057;-60
2023/09/02 06:57:43;;;;;;;52.28;21.92;;;;;;;;;;5020264;27;93365;-60
2023/09/02 07:00:11;;;;;;;59.90;21.88;;;;;;;;;;5017331;27;94197;-60
2023/09/02 07:02:37;;;;;;;224.75;23.98;;;;;;;;;;5012773;27;92667;-61
2023/09/02 07:05:04;;;;;;;102.10;23.63;;;;;;;;;;5013287;27;92426;-59
2023/09/02 07:07:30;;;;;;;69.18;22.05;;;;;;;;;;5013150;27;93221;-59
2023/09/02 07:09:57;;;;;;;105.05;23.05;;;;;;;;;;5010992;27;96827;-60
2023/09/02 07:12:24;;;;;;;131.35;23.02;;;;;;;;;;5012887;27;92780;-60
2023/09/02 07:14:50;;;;;;;35.58;19.05;;;;;;;;;;5012479;27;93236;-59
2023/09/02 07:17:17;;;;;;;37.72;18.15;;;;;;;;;;5017423;27;94529;-60
2023/09/02 07:19:44;;;;;;;42.40;16.98;;;;;;;;;;5017194;27;93246;-60
2023/09/02 07:22:10;;;;;;;26.52;15.10;;;;;;;;;;5012436;27;92458;-60
2023/09/02 07:24:36;;;;;;;48.58;15.02;;;;;;;;;;5011197;27;92589;-60
2023/09/02 07:27:03;;;;;;;28.95;15.35;;;;;;;;;;5013066;27;93160;-60
2023/09/02 07:29:29;;;;;;;75.22;16.95;;;;;;;;;;5015350;27;93457;-59
2023/09/02 07:31:56;;;;;;;27.20;16.13;;;;;;;;;;5012624;27;92458;-60
2023/09/02 07:34:22;;;;;;;32.28;17.08;;;;;;;;;;5010664;27;94835;-60
2023/09/02 07:36:48;;;;;;;27.92;16.58;;;;;;;;;;5011410;27;93521;-60
2023/09/02 07:39:16;;;;;;;24.42;16.70;;;;;;;;;;5016045;27;92595;-60
2023/09/02 07:41:43;;;;;;;27.23;16.58;;;;;;;;;;5011906;27;93416;-61
2023/09/02 07:44:09;;;;;;;27.23;17.20;;;;;;;;;;5016693;27;92438;-60
2023/09/02 07:46:35;;;;;;;23.75;16.55;;;;;;;;;;5016516;27;94147;-60
2023/09/02 07:49:02;;;;;;;80.90;17.55;;;;;;;;;;5012532;27;93443;-61
2023/09/02 07:51:28;;;;;;;26.92;16.90;;;;;;;;;;5020775;27;91901;-60
2023/09/02 07:53:55;;;;;;;23.08;15.02;;;;;;;;;;5017037;27;93724;-61
2023/09/02 07:56:22;;;;;;;24.30;16.02;;;;;;;;;;5015477;27;94634;-61
2023/09/02 07:58:50;;;;;;;74.47;17.13;;;;;;;;;;5008715;27;95148;-61
2023/09/02 08:01:17;;;;;;;39.88;17.30;;;;;;;;;;5016338;27;96628;-61
2023/09/02 08:03:43;;;;;;;55.53;18.30;;;;;;;;;;5014607;27;92632;-61
2023/09/02 08:06:10;;;;;;;28.15;16.33;;;;;;;;;;5012111;27;94270;-61
2023/09/02 08:08:36;;;;;;;31.73;17.30;;;;;;;;;;5012320;27;92569;-61
2023/09/02 08:11:03;;;;;;;25.08;15.77;;;;;;;;;;5011810;27;92655;-61
2023/09/02 08:13:30;;;;;;;39.80;16.17;;;;;;;;;;5011477;27;93182;-61
2023/09/02 08:15:57;;;;;;;28.27;17.83;;;;;;;;;;5012557;27;93013;-61
2023/09/02 08:18:23;;;;;;;24.10;15.95;;;;;;;;;;5012244;27;92538;-61
2023/09/02 08:20:50;;;;;;;25.70;17.08;;;;;;;;;;5011475;27;93151;-61
2023/09/02 08:23:16;;;;;;;27.48;17.45;;;;;;;;;;5013476;27;95884;-61
2023/09/02 08:25:43;;;;;;;28.08;16.75;;;;;;;;;;5016533;27;96612;-62
2023/09/02 08:28:09;;;;;;;31.58;17.55;;;;;;;;;;5014926;27;93394;-61
2023/09/02 08:30:38;;;;;;;26.52;16.70;;;;;;;;;;5011010;27;92566;-61
2023/09/02 08:33:07;;;;;;;25.30;16.63;;;;;;;;;;5011990;27;93756;-61
2023/09/02 08:35:37;;;;;;;29.70;17.75;;;;;;;;;;5011848;27;94075;-61
2023/09/02 08:38:03;;;;;;;28.92;16.85;;;;;;;;;;5016032;27;92541;-62
2023/09/02 08:40:30;;;;;;;25.92;17.13;;;;;;;;;;5016222;27;94126;-61
2023/09/02 08:42:59;;;;;;;26.33;16.67;;;;;;;;;;5018011;27;94348;-61
2023/09/02 08:45:28;;;;;;;25.10;17.83;;;;;;;;;;5015492;27;92467;-61
2023/09/02 08:47:58;;;;;;;30.48;18.88;;;;;;;;;;5013687;27;96818;-61
2023/09/02 08:50:26;;;;;;;27.13;17.48;;;;;;;;;;5015608;27;92474;-61
2023/09/02 08:52:54;;;;;;;26.48;18.50;;;;;;;;;;5011881;27;93146;-61
2023/09/02 08:55:21;;;;;;;30.25;19.83;;;;;;;;;;5016342;27;92516;-61
2023/09/02 08:57:49;;;;;;;33.83;19.67;;;;;;;;;;5015139;27;92602;-61
2023/09/02 09:00:15;;;;;;;36.50;20.30;;;;;;;;;;5018701;27;93589;-61
2023/09/02 09:02:42;;;;;;;34.35;20.52;;;;;;;;;;5014720;27;93375;-61
2023/09/02 09:05:10;;;;;;;35.90;20.50;;;;;;;;;;5015825;27;92292;-60
2023/09/02 09:07:38;;;;;;;32.58;20.20;;;;;;;;;;5016462;27;92551;-61
2023/09/02 09:10:08;;;;;;;33.13;20.67;;;;;;;;;;5014997;27;92581;-60
2023/09/02 09:12:34;;;;;;;37.75;22.23;;;;;;;;;;5013823;27;94848;-61
2023/09/02 09:15:01;;;;;;;35.75;20.95;;;;;;;;;;5014315;27;93357;-60
2023/09/02 09:17:28;;;;;;;33.47;20.75;;;;;;;;;;5016305;27;92627;-61
2023/09/02 09:19:56;;;;;;;33.38;21.08;;;;;;;;;;5013827;27;93375;-61
2023/09/02 09:22:22;;;;;;;37.45;20.67;;;;;;;;;;5014078;27;93442;-61
2023/09/02 09:24:49;;;;;;;38.10;21.73;;;;;;;;;;5019358;27;92668;-60
2023/09/02 09:27:16;;;;;;;35.17;22.17;;;;;;;;;;5017611;27;95205;-61
2023/09/02 09:29:42;;;;;;;34.17;21.60;;;;;;;;;;5015716;27;91584;-61
2023/09/02 09:32:12;;;;;;;32.17;20.27;;;;;;;;;;5030948;27;94043;-61
2023/09/02 09:34:43;;;;;;;33.85;20.45;;;;;;;;;;5023010;27;97097;-61
2023/09/02 09:37:10;;;;;;;38.22;20.88;;;;;;;;;;5013572;27;94845;-61
2023/09/02 09:39:47;;;;;;;36.08;21.35;;;;;;;;;;5014915;27;96725;-61
2023/09/02 09:42:14;;;;;;;30.98;20.48;;;;;;;;;;5014584;27;94737;-61
2023/09/02 09:44:53;;;;;;;39.55;21.77;;;;;;;;;;5014399;27;92855;-61
2023/09/02 09:47:21;;;;;;;36.30;22.13;;;;;;;;;;5026903;27;92379;-61
2023/09/02 09:49:49;;;;;;;31.15;20.33;;;;;;;;;;5017052;27;94487;-61
2023/09/02 09:52:16;;;;;;;33.03;21.23;;;;;;;;;;5018684;27;94778;-61
2023/09/02 09:54:50;;;;;;;28.23;20.33;;;;;;;;;;5014804;27;91830;-61
2023/09/02 09:57:17;;;;;;;32.30;20.98;;;;;;;;;;5018499;27;92415;-61
2023/09/02 09:59:52;;;;;;;31.88;21.15;;;;;;;;;;5014123;27;93137;-62
2023/09/02 10:02:20;;;;;;;38.92;22.52;;;;;;;;;;5011869;27;95836;-62
2023/09/02 10:04:54;;;;;;;32.83;22.25;;;;;;;;;;5014192;27;92650;-62
2023/09/02 10:07:27;;;;;;;32.60;22.35;;;;;;;;;;5012050;27;94413;-62
2023/09/02 10:09:54;;;;;;;35.30;22.08;;;;;;;;;;5021988;27;93611;-62
2023/09/02 10:12:21;;;;;;;35.67;22.45;;;;;;;;;;5030803;27;92821;-61
2023/09/02 10:14:48;;;;;;;36.05;22.00;;;;;;;;;;5016885;27;93401;-61
2023/09/02 10:17:15;;;;;;;33.97;21.35;;;;;;;;;;5016427;27;92455;-61
2023/09/02 10:19:42;;;;;;;39.55;23.85;;;;;;;;;;5014505;27;93190;-61
2023/09/02 10:22:14;;;;;;;36.88;22.25;;;;;;;;;;5013999;27;94546;-61
2023/09/02 10:24:44;;;;;;;36.88;22.83;;;;;;;;;;5013088;27;93010;-61
2023/09/02 10:27:31;;;;;;;38.55;22.77;;;;;;;;;;5011448;27;95157;-61
2023/09/02 10:29:58;;;;;;;35.22;21.52;;;;;;;;;;5013877;27;94372;-62
2023/09/02 10:32:28;;;;;;;36.25;23.30;;;;;;;;;;5013173;27;92588;-61
2023/09/02 10:34:57;;;;;;;36.33;21.73;;;;;;;;;;5020640;27;93374;-61
2023/09/02 10:37:25;;;;;;;36.70;22.55;;;;;;;;;;5013579;27;92715;-61
2023/09/02 10:39:53;;;;;;;34.00;22.30;;;;;;;;;;5018050;27;93215;-61
2023/09/02 10:42:19;;;;;;;34.78;22.73;;;;;;;;;;5013022;27;94394;-61
2023/09/02 10:44:47;;;;;;;32.47;21.83;;;;;;;;;;5013533;27;91759;-61
2023/09/02 10:47:14;;;;;;;33.30;22.60;;;;;;;;;;5018041;27;92391;-61
2023/09/02 10:49:41;;;;;;;35.25;22.98;;;;;;;;;;5015666;27;92606;-61
2023/09/02 10:52:08;;;;;;;39.17;23.88;;;;;;;;;;5019065;27;95142;-62
2023/09/02 10:55:16;;;;;;;35.58;22.77;;;;;;;;;;5018582;27;96772;-61
2023/09/02 10:57:45;;;;;;;36.13;22.95;;;;;;;;;;4950182;28;97487;-61
2023/09/02 11:00:16;;;;;;;33.53;22.70;;;;;;;;;;4950999;28;93119;-61
2023/09/02 11:02:43;;;;;;;36.22;22.80;;;;;;;;;;4966879;27;93425;-61
2023/09/02 11:05:10;;;;;;;35.47;22.30;;;;;;;;;;5013240;27;92582;-61
2023/09/02 11:07:39;;;;;;;33.78;22.45;;;;;;;;;;5012591;27;93074;-61
2023/09/02 11:10:06;;;;;;;32.63;20.75;;;;;;;;;;5013584;27;92705;-60
2023/09/02 11:12:33;;;;;;;32.38;21.08;;;;;;;;;;5012217;27;92541;-60
2023/09/02 11:15:09;;;;;;;28.85;21.60;;;;;;;;;;5017360;27;95413;-60
2023/09/02 11:17:35;;;;;;;26.70;19.77;;;;;;;;;;5017679;27;95965;-61
2023/09/02 11:20:03;;;;;;;26.90;19.42;;;;;;;;;;5015407;27;92524;-61
2023/09/02 11:22:48;;;;;;;23.95;18.48;;;;;;;;;;5013125;27;93578;-61
2023/09/02 11:25:29;;;;;;;26.23;18.92;;;;;;;;;;5013209;27;92371;-61
2023/09/02 11:27:59;;;;;;;27.65;19.60;;;;;;;;;;5013413;27;92707;-60
2023/09/02 11:30:26;;;;;;;26.55;18.75;;;;;;;;;;5015230;27;94661;-60
2023/09/02 11:32:54;;;;;;;26.08;19.08;;;;;;;;;;5012320;27;92545;-60
2023/09/02 11:35:24;;;;;;;30.00;18.98;;;;;;;;;;5020324;27;91932;-61
2023/09/02 11:37:51;;;;;;;33.00;19.60;;;;;;;;;;5013003;27;92683;-61
2023/09/02 11:40:18;;;;;;;25.23;18.58;;;;;;;;;;5015612;27;92715;-60
2023/09/02 11:42:50;;;;;;;23.52;18.30;;;;;;;;;;5013622;27;95736;-60
2023/09/02 11:45:16;;;;;;;27.08;18.45;;;;;;;;;;5012904;27;92743;-61
2023/09/02 11:47:43;;;;;;;26.75;18.90;;;;;;;;;;5018309;27;93223;-61
2023/09/02 11:50:13;;;;;;;31.70;19.05;;;;;;;;;;5022015;27;93524;-60
2023/09/02 11:52:40;;;;;;;23.65;17.35;;;;;;;;;;5014033;27;93600;-61
2023/09/02 11:55:07;;;;;;;23.80;16.58;;;;;;;;;;5013362;27;93228;-61
2023/09/02 11:57:34;;;;;;;25.33;17.13;;;;;;;;;;5011786;27;93417;-61
2023/09/02 12:00:00;;;;;;;23.42;16.83;;;;;;;;;;5012942;27;91771;-61
2023/09/02 12:02:27;;;;;;;29.88;18.23;;;;;;;;;;5015377;27;92474;-63
2023/09/02 12:04:53;;;;;;;26.80;18.58;;;;;;;;;;5011668;27;92436;-61
2023/09/02 12:07:20;;;;;;;25.30;18.88;;;;;;;;;;5012609;27;94836;-60
2023/09/02 12:09:47;;;;;;;23.38;17.58;;;;;;;;;;5011916;27;93367;-60
2023/09/02 12:12:15;;;;;;;26.63;17.75;;;;;;;;;;5012075;27;92570;-60
2023/09/02 12:14:41;;;;;;;22.75;16.23;;;;;;;;;;5012542;27;93170;-60
2023/09/02 12:17:08;;;;;;;22.25;16.30;;;;;;;;;;5015449;27;92406;-60
2023/09/02 12:19:35;;;;;;;24.38;16.23;;;;;;;;;;5011614;27;92512;-60
2023/09/02 12:22:01;;;;;;;26.27;18.30;;;;;;;;;;5012406;27;93512;-60
2023/09/02 12:24:29;;;;;;;26.40;17.83;;;;;;;;;;5014871;27;93004;-60
2023/09/02 12:26:56;;;;;;;23.30;17.48;;;;;;;;;;5012486;27;92640;-61
2023/09/02 12:29:23;;;;;;;27.02;18.23;;;;;;;;;;5019207;27;93377;-61
2023/09/02 12:31:59;;;;;;;27.98;19.38;;;;;;;;;;5013827;27;94933;-61
2023/09/02 12:34:33;;;;;;;26.90;18.67;;;;;;;;;;5014764;27;95671;-61
2023/09/02 12:37:19;;;;;;;24.85;18.40;;;;;;;;;;5015238;27;93571;-61
2023/09/02 12:39:47;;;;;;;23.30;17.58;;;;;;;;;;5014772;27;92618;-61
2023/09/02 12:42:24;;;;;;;24.40;16.98;;;;;;;;;;5022419;27;93009;-61
2023/09/02 12:44:52;;;;;;;20.58;16.38;;;;;;;;;;5014771;27;94456;-61
2023/09/02 12:47:23;;;;;;;19.58;15.50;;;;;;;;;;5021825;27;92478;-61
2023/09/02 12:49:53;;;;;;;23.05;16.90;;;;;;;;;;5015519;27;92650;-60
2023/09/02 12:52:20;;;;;;;20.88;15.82;;;;;;;;;;5015268;27;92634;-61
2023/09/02 12:54:53;;;;;;;16.90;14.65;;;;;;;;;;5014772;27;94114;-60
2023/09/02 12:57:20;;;;;;;20.30;15.00;;;;;;;;;;5013362;27;95875;-60
2023/09/02 12:59:46;;;;;;;17.83;14.40;;;;;;;;;;5014723;27;92961;-60
2023/09/02 13:02:12;;;;;;;18.92;14.88;;;;;;;;;;5014215;27;93189;-61
2023/09/02 13:04:39;;;;;;;21.05;16.10;;;;;;;;;;5014936;27;93435;-60
2023/09/02 13:07:05;;;;;;;19.52;14.48;;;;;;;;;;5014575;27;92419;-60
2023/09/02 13:09:32;;;;;;;18.75;15.10;;;;;;;;;;5017384;27;94281;-61
2023/09/02 13:11:59;;;;;;;14.20;11.52;;;;;;;;;;5014900;27;92658;-61
2023/09/02 13:14:26;;;;;;;17.63;12.82;;;;;;;;;;5014292;27;93212;-61
2023/09/02 13:16:53;;;;;;;16.00;13.27;;;;;;;;;;5022602;27;94156;-61
2023/09/02 13:19:23;;;;;;;18.33;14.32;;;;;;;;;;5022856;27;92782;-60
2023/09/02 13:21:50;;;;;;;17.80;14.52;;;;;;;;;;5013922;27;94854;-60
2023/09/02 13:24:18;;;;;;;16.60;13.25;;;;;;;;;;5014615;27;95047;-61
2023/09/02 13:26:44;;;;;;;16.65;13.95;;;;;;;;;;5015166;27;92520;-61
2023/09/02 13:29:12;;;;;;;20.77;13.50;;;;;;;;;;5017511;27;93243;-61
2023/09/02 13:31:39;;;;;;;17.83;12.57;;;;;;;;;;5018883;27;96067;-61
2023/09/02 13:34:05;;;;;;;18.15;12.55;;;;;;;;;;5014430;27;92356;-61
2023/09/02 13:36:33;;;;;;;14.60;11.85;;;;;;;;;;5018525;27;93404;-59
2023/09/02 13:38:59;;;;;;;16.52;12.63;;;;;;;;;;5014186;27;91745;-59
2023/09/02 13:41:25;;;;;;;12.48;10.90;;;;;;;;;;5015659;27;92910;-60
2023/09/02 13:43:52;;;;;;;12.05;10.77;;;;;;;;;;5014168;27;94786;-60
2023/09/02 13:46:18;;;;;;;13.30;11.90;;;;;;;;;;5014352;27;95026;-59
2023/09/02 13:48:45;;;;;;;12.05;10.50;;;;;;;;;;5023979;27;96689;-60
2023/09/02 13:51:15;;;;;;;11.20;10.07;;;;;;;;;;5017282;27;93464;-59
2023/09/02 13:53:42;;;;;;;11.85;10.18;;;;;;;;;;5018321;27;93294;-60
2023/09/02 13:56:10;;;;;;;11.90;9.90;;;;;;;;;;5013747;27;94498;-60
2023/09/02 13:58:36;;;;;;;11.00;9.90;;;;;;;;;;5020748;27;92488;-60
2023/09/02 14:01:03;;;;;;;10.80;9.07;;;;;;;;;;5017205;27;93172;-60
2023/09/02 14:03:30;;;;;;;10.93;8.75;;;;;;;;;;5016507;27;93953;-60
2023/09/02 14:05:59;;;;;;;12.00;9.10;;;;;;;;;;5017756;27;92707;-60
2023/09/02 14:08:36;;;;;;;12.38;9.00;;;;;;;;;;5014925;27;93306;-60
2023/09/02 14:11:03;;;;;;;9.35;8.30;;;;;;;;;;5014796;27;95830;-59
2023/09/02 14:13:37;;;;;;;9.57;8.00;;;;;;;;;;5020531;27;92468;-60
2023/09/02 14:16:04;;;;;;;9.18;7.68;;;;;;;;;;5015351;27;93482;-59
2023/09/02 14:18:31;;;;;;;9.90;8.90;;;;;;;;;;5025152;27;93796;-60